sensor_id;sensor_type;location;lat;lon;timestamp;P1;durP1;ratioP1;P2;durP2;ratioP2
28547;SDS011;68292;49.600;8.746;2023-10-13T00:02:07;8.07;;;5.78;;
28547;SDS011;68292;49.600;8.746;2023-10-13T00:04:37;11.60;;;5.65;;
28547;SDS011;68292;49.600;8.746;2023-10-13T00:07:06;7.55;;;6.00;;
28547;SDS011;68292;49.600;8.746;2023-10-13T00:09:38;7.65;;;5.90;;
28547;SDS011;68292;49.600;8.746;2023-10-13T00:12:07;9.52;;;5.80;;
28547;SDS011;68292;49.600;8.746;2023-10-13T00:14:40;6.22;;;5.53;;
28547;SDS011;68292;49.600;8.746;2023-10-13T00:17:12;5.72;;;5.22;;
28547;SDS011;68292;49.600;8.746;2023-10-13T00:19:47;8.15;;;5.70;;
28547;SDS011;68292;49.600;8.746;2023-10-13T00:22:19;7.82;;;5.60;;
28547;SDS011;68292;49.600;8.746;2023-10-13T00:24:51;8.07;;;5.35;;
28547;SDS011;68292;49.600;8.746;2023-10-13T00:27:25;7.00;;;5.38;;
28547;SDS011;68292;49.600;8.746;2023-10-13T00:29:57;6.60;;;5.65;;
28547;SDS011;68292;49.600;8.746;2023-10-13T00:32:49;6.20;;;5.40;;
28547;SDS011;68292;49.600;8.746;2023-10-13T00:35:22;7.18;;;5.18;;
28547;SDS011;68292;49.600;8.746;2023-10-13T00:37:56;10.40;;;6.28;;
28547;SDS011;68292;49.600;8.746;2023-10-13T00:40:32;9.65;;;5.85;;
28547;SDS011;68292;49.600;8.746;2023-10-13T00:43:18;6.88;;;5.72;;
28547;SDS011;68292;49.600;8.746;2023-10-13T00:46:01;5.65;;;4.90;;
28547;SDS011;68292;49.600;8.746;2023-10-13T00:48:36;6.53;;;5.50;;
28547;SDS011;68292;49.600;8.746;2023-10-13T00:51:19;7.85;;;6.55;;
28547;SDS011;68292;49.600;8.746;2023-10-13T00:54:02;8.20;;;5.63;;
28547;SDS011;68292;49.600;8.746;2023-10-13T00:56:36;8.82;;;5.47;;
28547;SDS011;68292;49.600;8.746;2023-10-13T00:59:14;6.07;;;5.47;;
28547;SDS011;68292;49.600;8.746;2023-10-13T01:01:42;7.25;;;5.55;;
28547;SDS011;68292;49.600;8.746;2023-10-13T01:04:11;6.70;;;5.35;;
28547;SDS011;68292;49.600;8.746;2023-10-13T01:06:40;8.68;;;5.68;;
28547;SDS011;68292;49.600;8.746;2023-10-13T01:09:09;9.02;;;5.53;;
28547;SDS011;68292;49.600;8.746;2023-10-13T01:11:42;8.73;;;5.90;;
28547;SDS011;68292;49.600;8.746;2023-10-13T01:14:13;6.57;;;5.35;;
28547;SDS011;68292;49.600;8.746;2023-10-13T01:16:44;11.70;;;5.15;;
28547;SDS011;68292;49.600;8.746;2023-10-13T01:19:13;6.60;;;5.07;;
28547;SDS011;68292;49.600;8.746;2023-10-13T01:21:47;10.50;;;5.03;;
28547;SDS011;68292;49.600;8.746;2023-10-13T01:24:17;10.75;;;5.18;;
28547;SDS011;68292;49.600;8.746;2023-10-13T01:26:51;8.68;;;5.35;;
28547;SDS011;68292;49.600;8.746;2023-10-13T01:29:20;9.00;;;5.53;;
28547;SDS011;68292;49.600;8.746;2023-10-13T01:31:52;8.25;;;5.70;;
28547;SDS011;68292;49.600;8.746;2023-10-13T01:34:22;7.43;;;5.30;;
28547;SDS011;68292;49.600;8.746;2023-10-13T01:36:50;8.50;;;5.00;;
28547;SDS011;68292;49.600;8.746;2023-10-13T01:39:22;10.23;;;5.88;;
28547;SDS011;68292;49.600;8.746;2023-10-13T01:41:55;8.32;;;5.55;;
28547;SDS011;68292;49.600;8.746;2023-10-13T01:44:24;6.55;;;5.60;;
28547;SDS011;68292;49.600;8.746;2023-10-13T01:46:53;5.72;;;5.22;;
28547;SDS011;68292;49.600;8.746;2023-10-13T01:49:22;10.10;;;5.78;;
28547;SDS011;68292;49.600;8.746;2023-10-13T01:51:50;6.15;;;5.55;;
28547;SDS011;68292;49.600;8.746;2023-10-13T01:54:19;8.57;;;5.43;;
28547;SDS011;68292;49.600;8.746;2023-10-13T01:56:48;6.13;;;5.28;;
28547;SDS011;68292;49.600;8.746;2023-10-13T01:59:17;8.65;;;6.38;;
28547;SDS011;68292;49.600;8.746;2023-10-13T02:01:45;7.35;;;4.85;;
28547;SDS011;68292;49.600;8.746;2023-10-13T02:04:14;6.47;;;5.20;;
28547;SDS011;68292;49.600;8.746;2023-10-13T02:06:44;10.48;;;5.47;;
28547;SDS011;68292;49.600;8.746;2023-10-13T02:09:12;7.78;;;5.13;;
28547;SDS011;68292;49.600;8.746;2023-10-13T02:11:43;9.75;;;5.50;;
28547;SDS011;68292;49.600;8.746;2023-10-13T02:14:14;10.85;;;5.55;;
28547;SDS011;68292;49.600;8.746;2023-10-13T02:16:43;6.47;;;5.35;;
28547;SDS011;68292;49.600;8.746;2023-10-13T02:19:16;6.13;;;5.43;;
28547;SDS011;68292;49.600;8.746;2023-10-13T02:21:46;6.90;;;5.03;;
28547;SDS011;68292;49.600;8.746;2023-10-13T02:24:25;9.15;;;5.53;;
28547;SDS011;68292;49.600;8.746;2023-10-13T02:26:58;6.85;;;5.20;;
28547;SDS011;68292;49.600;8.746;2023-10-13T02:29:30;5.88;;;5.30;;
28547;SDS011;68292;49.600;8.746;2023-10-13T02:32:05;11.68;;;5.55;;
28547;SDS011;68292;49.600;8.746;2023-10-13T02:34:39;7.97;;;5.47;;
28547;SDS011;68292;49.600;8.746;2023-10-13T02:37:10;7.38;;;5.20;;
28547;SDS011;68292;49.600;8.746;2023-10-13T02:39:40;7.18;;;4.72;;
28547;SDS011;68292;49.600;8.746;2023-10-13T02:42:10;11.75;;;5.93;;
28547;SDS011;68292;49.600;8.746;2023-10-13T02:44:50;9.07;;;5.60;;
28547;SDS011;68292;49.600;8.746;2023-10-13T02:47:22;9.27;;;5.40;;
28547;SDS011;68292;49.600;8.746;2023-10-13T02:49:54;11.27;;;5.75;;
28547;SDS011;68292;49.600;8.746;2023-10-13T02:52:21;7.68;;;5.25;;
28547;SDS011;68292;49.600;8.746;2023-10-13T02:54:51;10.32;;;5.55;;
28547;SDS011;68292;49.600;8.746;2023-10-13T02:57:20;9.70;;;5.15;;
28547;SDS011;68292;49.600;8.746;2023-10-13T02:59:50;15.10;;;5.38;;
28547;SDS011;68292;49.600;8.746;2023-10-13T03:02:38;7.93;;;5.18;;
28547;SDS011;68292;49.600;8.746;2023-10-13T03:05:11;5.35;;;4.82;;
28547;SDS011;68292;49.600;8.746;2023-10-13T03:07:44;8.70;;;5.32;;
28547;SDS011;68292;49.600;8.746;2023-10-13T03:10:12;6.78;;;5.10;;
28547;SDS011;68292;49.600;8.746;2023-10-13T03:12:43;10.50;;;5.82;;
28547;SDS011;68292;49.600;8.746;2023-10-13T03:15:15;6.85;;;5.75;;
28547;SDS011;68292;49.600;8.746;2023-10-13T03:17:45;7.47;;;5.20;;
28547;SDS011;68292;49.600;8.746;2023-10-13T03:20:14;7.93;;;5.30;;
28547;SDS011;68292;49.600;8.746;2023-10-13T03:22:52;7.80;;;5.47;;
28547;SDS011;68292;49.600;8.746;2023-10-13T03:25:21;6.57;;;5.30;;
28547;SDS011;68292;49.600;8.746;2023-10-13T03:27:58;10.43;;;5.03;;
28547;SDS011;68292;49.600;8.746;2023-10-13T03:30:32;12.55;;;5.88;;
28547;SDS011;68292;49.600;8.746;2023-10-13T03:33:05;10.15;;;5.15;;
28547;SDS011;68292;49.600;8.746;2023-10-13T03:35:36;5.90;;;5.22;;
28547;SDS011;68292;49.600;8.746;2023-10-13T03:38:07;8.15;;;4.78;;
28547;SDS011;68292;49.600;8.746;2023-10-13T03:40:44;9.00;;;5.10;;
28547;SDS011;68292;49.600;8.746;2023-10-13T03:43:17;12.98;;;5.20;;
28547;SDS011;68292;49.600;8.746;2023-10-13T03:45:49;10.23;;;5.22;;
28547;SDS011;68292;49.600;8.746;2023-10-13T03:48:28;8.80;;;5.30;;
28547;SDS011;68292;49.600;8.746;2023-10-13T03:50:57;11.48;;;5.07;;
28547;SDS011;68292;49.600;8.746;2023-10-13T03:53:34;6.72;;;5.07;;
28547;SDS011;68292;49.600;8.746;2023-10-13T03:56:20;11.20;;;4.93;;
28547;SDS011;68292;49.600;8.746;2023-10-13T03:59:08;8.43;;;5.32;;
28547;SDS011;68292;49.600;8.746;2023-10-13T04:01:46;6.30;;;5.43;;
28547;SDS011;68292;49.600;8.746;2023-10-13T04:04:25;11.15;;;5.35;;
28547;SDS011;68292;49.600;8.746;2023-10-13T04:07:04;9.15;;;4.90;;
28547;SDS011;68292;49.600;8.746;2023-10-13T04:10:06;10.90;;;5.18;;
28547;SDS011;68292;49.600;8.746;2023-10-13T04:12:50;7.93;;;5.18;;
28547;SDS011;68292;49.600;8.746;2023-10-13T04:15:37;9.40;;;5.40;;
28547;SDS011;68292;49.600;8.746;2023-10-13T04:18:28;7.88;;;4.45;;
28547;SDS011;68292;49.600;8.746;2023-10-13T04:21:30;5.63;;;4.70;;
28547;SDS011;68292;49.600;8.746;2023-10-13T04:24:22;6.50;;;4.47;;
28547;SDS011;68292;49.600;8.746;2023-10-13T04:27:04;7.88;;;5.20;;
28547;SDS011;68292;49.600;8.746;2023-10-13T04:29:51;7.82;;;4.95;;
28547;SDS011;68292;49.600;8.746;2023-10-13T04:32:38;6.13;;;4.60;;
28547;SDS011;68292;49.600;8.746;2023-10-13T04:35:13;11.30;;;5.07;;
28547;SDS011;68292;49.600;8.746;2023-10-13T04:37:45;10.88;;;4.68;;
28547;SDS011;68292;49.600;8.746;2023-10-13T04:40:18;5.97;;;4.10;;
28547;SDS011;68292;49.600;8.746;2023-10-13T04:42:52;9.55;;;4.43;;
28547;SDS011;68292;49.600;8.746;2023-10-13T04:45:24;9.07;;;4.57;;
28547;SDS011;68292;49.600;8.746;2023-10-13T04:48:15;8.20;;;4.22;;
28547;SDS011;68292;49.600;8.746;2023-10-13T04:50:58;7.50;;;4.13;;
28547;SDS011;68292;49.600;8.746;2023-10-13T04:53:45;6.60;;;4.30;;
28547;SDS011;68292;49.600;8.746;2023-10-13T04:56:39;6.03;;;4.43;;
28547;SDS011;68292;49.600;8.746;2023-10-13T04:59:40;4.90;;;4.25;;
28547;SDS011;68292;49.600;8.746;2023-10-13T05:02:23;7.70;;;4.57;;
28547;SDS011;68292;49.600;8.746;2023-10-13T05:05:24;5.57;;;3.95;;
28547;SDS011;68292;49.600;8.746;2023-10-13T05:08:12;8.05;;;4.20;;
28547;SDS011;68292;49.600;8.746;2023-10-13T05:11:10;11.43;;;4.82;;
28547;SDS011;68292;49.600;8.746;2023-10-13T05:13:56;7.13;;;4.15;;
28547;SDS011;68292;49.600;8.746;2023-10-13T05:16:42;4.93;;;3.95;;
28547;SDS011;68292;49.600;8.746;2023-10-13T05:19:28;6.15;;;4.53;;
28547;SDS011;68292;49.600;8.746;2023-10-13T05:22:16;10.73;;;4.43;;
28547;SDS011;68292;49.600;8.746;2023-10-13T05:25:03;8.00;;;4.50;;
28547;SDS011;68292;49.600;8.746;2023-10-13T05:27:50;11.35;;;4.82;;
28547;SDS011;68292;49.600;8.746;2023-10-13T05:30:52;7.82;;;4.25;;
28547;SDS011;68292;49.600;8.746;2023-10-13T05:33:38;9.77;;;4.30;;
28547;SDS011;68292;49.600;8.746;2023-10-13T05:36:24;7.20;;;4.45;;
28547;SDS011;68292;49.600;8.746;2023-10-13T05:39:12;7.85;;;3.92;;
28547;SDS011;68292;49.600;8.746;2023-10-13T05:42:06;5.95;;;4.03;;
28547;SDS011;68292;49.600;8.746;2023-10-13T05:44:52;5.47;;;4.13;;
28547;SDS011;68292;49.600;8.746;2023-10-13T05:47:44;7.90;;;3.70;;
28547;SDS011;68292;49.600;8.746;2023-10-13T05:50:17;8.52;;;4.72;;
28547;SDS011;68292;49.600;8.746;2023-10-13T05:53:00;11.45;;;3.97;;
28547;SDS011;68292;49.600;8.746;2023-10-13T05:55:47;7.78;;;4.45;;
28547;SDS011;68292;49.600;8.746;2023-10-13T05:58:33;6.70;;;4.05;;
28547;SDS011;68292;49.600;8.746;2023-10-13T06:01:22;7.40;;;4.38;;
28547;SDS011;68292;49.600;8.746;2023-10-13T06:04:09;11.73;;;4.30;;
28547;SDS011;68292;49.600;8.746;2023-10-13T06:06:55;10.10;;;4.07;;
28547;SDS011;68292;49.600;8.746;2023-10-13T06:09:41;6.18;;;4.22;;
28547;SDS011;68292;49.600;8.746;2023-10-13T06:12:29;7.88;;;4.07;;
28547;SDS011;68292;49.600;8.746;2023-10-13T06:15:23;7.82;;;4.65;;
28547;SDS011;68292;49.600;8.746;2023-10-13T06:18:09;8.10;;;4.13;;
28547;SDS011;68292;49.600;8.746;2023-10-13T06:20:55;9.25;;;4.45;;
28547;SDS011;68292;49.600;8.746;2023-10-13T06:23:41;13.95;;;4.28;;
28547;SDS011;68292;49.600;8.746;2023-10-13T06:26:28;7.50;;;4.57;;
28547;SDS011;68292;49.600;8.746;2023-10-13T06:29:15;7.50;;;4.75;;
28547;SDS011;68292;49.600;8.746;2023-10-13T06:31:47;9.63;;;4.55;;
28547;SDS011;68292;49.600;8.746;2023-10-13T06:34:16;8.95;;;4.78;;
28547;SDS011;68292;49.600;8.746;2023-10-13T06:36:47;8.82;;;4.25;;
28547;SDS011;68292;49.600;8.746;2023-10-13T06:39:21;7.80;;;4.53;;
28547;SDS011;68292;49.600;8.746;2023-10-13T06:42:02;10.45;;;4.38;;
28547;SDS011;68292;49.600;8.746;2023-10-13T06:44:32;8.95;;;4.78;;
28547;SDS011;68292;49.600;8.746;2023-10-13T06:47:01;8.10;;;4.53;;
28547;SDS011;68292;49.600;8.746;2023-10-13T06:49:31;10.07;;;4.55;;
28547;SDS011;68292;49.600;8.746;2023-10-13T06:52:06;7.70;;;4.50;;
28547;SDS011;68292;49.600;8.746;2023-10-13T06:54:34;7.25;;;4.72;;
28547;SDS011;68292;49.600;8.746;2023-10-13T06:57:05;12.70;;;5.13;;
28547;SDS011;68292;49.600;8.746;2023-10-13T06:59:42;10.77;;;4.68;;
28547;SDS011;68292;49.600;8.746;2023-10-13T07:02:10;6.63;;;5.55;;
28547;SDS011;68292;49.600;8.746;2023-10-13T07:04:54;6.45;;;4.82;;
28547;SDS011;68292;49.600;8.746;2023-10-13T07:07:35;10.35;;;4.75;;
28547;SDS011;68292;49.600;8.746;2023-10-13T07:10:07;6.38;;;4.40;;
28547;SDS011;68292;49.600;8.746;2023-10-13T07:12:38;8.13;;;5.05;;
28547;SDS011;68292;49.600;8.746;2023-10-13T07:15:13;7.25;;;5.38;;
28547;SDS011;68292;49.600;8.746;2023-10-13T07:17:51;7.65;;;5.20;;
28547;SDS011;68292;49.600;8.746;2023-10-13T07:20:26;8.50;;;5.38;;
28547;SDS011;68292;49.600;8.746;2023-10-13T07:23:04;6.88;;;5.20;;
28547;SDS011;68292;49.600;8.746;2023-10-13T07:25:36;5.30;;;4.80;;
28547;SDS011;68292;49.600;8.746;2023-10-13T07:28:07;6.03;;;4.70;;
28547;SDS011;68292;49.600;8.746;2023-10-13T07:30:38;12.35;;;5.28;;
28547;SDS011;68292;49.600;8.746;2023-10-13T07:33:16;6.72;;;4.97;;
28547;SDS011;68292;49.600;8.746;2023-10-13T07:35:47;6.70;;;5.32;;
28547;SDS011;68292;49.600;8.746;2023-10-13T07:38:17;8.23;;;5.13;;
28547;SDS011;68292;49.600;8.746;2023-10-13T07:40:47;6.35;;;4.55;;
28547;SDS011;68292;49.600;8.746;2023-10-13T07:43:18;6.53;;;4.68;;
28547;SDS011;68292;49.600;8.746;2023-10-13T07:45:51;9.90;;;4.80;;
28547;SDS011;68292;49.600;8.746;2023-10-13T07:48:25;8.73;;;4.45;;
28547;SDS011;68292;49.600;8.746;2023-10-13T07:51:00;5.55;;;4.88;;
28547;SDS011;68292;49.600;8.746;2023-10-13T07:53:32;9.63;;;4.78;;
28547;SDS011;68292;49.600;8.746;2023-10-13T07:56:06;4.97;;;4.28;;
28547;SDS011;68292;49.600;8.746;2023-10-13T07:58:38;7.43;;;5.00;;
28547;SDS011;68292;49.600;8.746;2023-10-13T08:01:21;8.82;;;4.32;;
28547;SDS011;68292;49.600;8.746;2023-10-13T08:03:51;5.18;;;4.55;;
28547;SDS011;68292;49.600;8.746;2023-10-13T08:06:31;6.90;;;4.20;;
28547;SDS011;68292;49.600;8.746;2023-10-13T08:09:03;7.25;;;4.70;;
28547;SDS011;68292;49.600;8.746;2023-10-13T08:11:36;4.78;;;4.07;;
28547;SDS011;68292;49.600;8.746;2023-10-13T08:14:05;7.50;;;3.75;;
28547;SDS011;68292;49.600;8.746;2023-10-13T08:17:06;4.70;;;4.25;;
28547;SDS011;68292;49.600;8.746;2023-10-13T08:19:36;4.40;;;4.00;;
28547;SDS011;68292;49.600;8.746;2023-10-13T08:22:13;7.53;;;4.45;;
28547;SDS011;68292;49.600;8.746;2023-10-13T08:24:51;5.95;;;4.20;;
28547;SDS011;68292;49.600;8.746;2023-10-13T08:27:25;6.10;;;4.72;;
28547;SDS011;68292;49.600;8.746;2023-10-13T08:30:02;6.15;;;4.25;;
28547;SDS011;68292;49.600;8.746;2023-10-13T08:32:52;7.22;;;4.32;;
28547;SDS011;68292;49.600;8.746;2023-10-13T08:35:26;5.13;;;4.10;;
28547;SDS011;68292;49.600;8.746;2023-10-13T08:38:04;5.38;;;4.43;;
28547;SDS011;68292;49.600;8.746;2023-10-13T08:40:58;8.05;;;4.38;;
28547;SDS011;68292;49.600;8.746;2023-10-13T08:43:45;6.63;;;3.92;;
28547;SDS011;68292;49.600;8.746;2023-10-13T08:46:19;11.38;;;5.60;;
28547;SDS011;68292;49.600;8.746;2023-10-13T08:48:58;7.80;;;4.57;;
28547;SDS011;68292;49.600;8.746;2023-10-13T08:51:44;4.32;;;3.88;;
28547;SDS011;68292;49.600;8.746;2023-10-13T08:54:16;5.88;;;4.60;;
28547;SDS011;68292;49.600;8.746;2023-10-13T08:57:01;4.43;;;4.00;;
28547;SDS011;68292;49.600;8.746;2023-10-13T08:59:51;5.35;;;3.95;;
28547;SDS011;68292;49.600;8.746;2023-10-13T09:02:22;7.90;;;4.32;;
28547;SDS011;68292;49.600;8.746;2023-10-13T09:05:07;6.43;;;4.05;;
28547;SDS011;68292;49.600;8.746;2023-10-13T09:07:57;6.00;;;4.18;;
28547;SDS011;68292;49.600;8.746;2023-10-13T09:10:36;7.10;;;4.45;;
28547;SDS011;68292;49.600;8.746;2023-10-13T09:13:33;8.43;;;4.35;;
28547;SDS011;68292;49.600;8.746;2023-10-13T09:16:11;5.47;;;4.15;;
28547;SDS011;68292;49.600;8.746;2023-10-13T09:19:01;8.30;;;4.10;;
28547;SDS011;68292;49.600;8.746;2023-10-13T09:21:38;6.47;;;4.05;;
28547;SDS011;68292;49.600;8.746;2023-10-13T09:24:21;5.43;;;3.75;;
28547;SDS011;68292;49.600;8.746;2023-10-13T09:26:54;4.72;;;4.10;;
28547;SDS011;68292;49.600;8.746;2023-10-13T09:29:23;8.20;;;4.18;;
28547;SDS011;68292;49.600;8.746;2023-10-13T09:31:59;5.75;;;4.47;;
28547;SDS011;68292;49.600;8.746;2023-10-13T09:34:31;7.25;;;4.18;;
28547;SDS011;68292;49.600;8.746;2023-10-13T09:37:09;6.90;;;4.43;;
28547;SDS011;68292;49.600;8.746;2023-10-13T09:39:38;5.25;;;3.92;;
28547;SDS011;68292;49.600;8.746;2023-10-13T09:42:15;5.18;;;3.60;;
28547;SDS011;68292;49.600;8.746;2023-10-13T09:44:45;8.05;;;4.32;;
28547;SDS011;68292;49.600;8.746;2023-10-13T09:47:21;8.95;;;4.22;;
28547;SDS011;68292;49.600;8.746;2023-10-13T09:50:01;7.20;;;4.13;;
28547;SDS011;68292;49.600;8.746;2023-10-13T09:52:34;6.50;;;4.35;;
28547;SDS011;68292;49.600;8.746;2023-10-13T09:55:17;4.40;;;3.97;;
28547;SDS011;68292;49.600;8.746;2023-10-13T09:57:58;3.92;;;3.50;;
28547;SDS011;68292;49.600;8.746;2023-10-13T10:00:40;6.95;;;3.97;;
28547;SDS011;68292;49.600;8.746;2023-10-13T10:03:15;6.32;;;3.92;;
28547;SDS011;68292;49.600;8.746;2023-10-13T10:06:02;7.57;;;4.30;;
28547;SDS011;68292;49.600;8.746;2023-10-13T10:08:34;6.00;;;4.30;;
28547;SDS011;68292;49.600;8.746;2023-10-13T10:14:16;5.00;;;4.25;;
28547;SDS011;68292;49.600;8.746;2023-10-13T10:16:59;8.90;;;4.15;;
28547;SDS011;68292;49.600;8.746;2023-10-13T10:19:45;5.75;;;4.10;;
28547;SDS011;68292;49.600;8.746;2023-10-13T10:22:24;4.40;;;3.88;;
28547;SDS011;68292;49.600;8.746;2023-10-13T10:24:59;4.65;;;4.15;;
28547;SDS011;68292;49.600;8.746;2023-10-13T10:27:30;8.48;;;4.50;;
28547;SDS011;68292;49.600;8.746;2023-10-13T10:30:01;6.35;;;4.22;;
28547;SDS011;68292;49.600;8.746;2023-10-13T10:32:34;7.30;;;4.30;;
28547;SDS011;68292;49.600;8.746;2023-10-13T10:35:05;4.78;;;3.92;;
28547;SDS011;68292;49.600;8.746;2023-10-13T10:37:36;4.72;;;4.00;;
28547;SDS011;68292;49.600;8.746;2023-10-13T10:40:15;5.38;;;3.90;;
28547;SDS011;68292;49.600;8.746;2023-10-13T10:43:01;8.05;;;4.30;;
28547;SDS011;68292;49.600;8.746;2023-10-13T10:45:55;8.43;;;3.80;;
28547;SDS011;68292;49.600;8.746;2023-10-13T10:48:27;5.25;;;4.03;;
28547;SDS011;68292;49.600;8.746;2023-10-13T10:51:05;6.47;;;4.32;;
28547;SDS011;68292;49.600;8.746;2023-10-13T10:53:41;5.80;;;4.05;;
28547;SDS011;68292;49.600;8.746;2023-10-13T10:56:15;4.63;;;4.07;;
28547;SDS011;68292;49.600;8.746;2023-10-13T10:58:53;4.28;;;3.88;;
28547;SDS011;68292;49.600;8.746;2023-10-13T11:01:23;6.63;;;4.05;;
28547;SDS011;68292;49.600;8.746;2023-10-13T11:04:01;7.45;;;4.03;;
28547;SDS011;68292;49.600;8.746;2023-10-13T11:06:47;6.15;;;4.05;;
28547;SDS011;68292;49.600;8.746;2023-10-13T11:09:25;7.10;;;4.30;;
28547;SDS011;68292;49.600;8.746;2023-10-13T11:12:12;5.88;;;3.97;;
28547;SDS011;68292;49.600;8.746;2023-10-13T11:14:43;7.35;;;4.15;;
28547;SDS011;68292;49.600;8.746;2023-10-13T11:17:19;7.90;;;4.20;;
28547;SDS011;68292;49.600;8.746;2023-10-13T11:19:53;8.82;;;4.00;;
28547;SDS011;68292;49.600;8.746;2023-10-13T11:22:23;6.70;;;3.90;;
28547;SDS011;68292;49.600;8.746;2023-10-13T11:25:00;8.85;;;4.13;;
28547;SDS011;68292;49.600;8.746;2023-10-13T11:27:39;9.32;;;4.40;;
28547;SDS011;68292;49.600;8.746;2023-10-13T11:30:23;6.20;;;3.92;;
28547;SDS011;68292;49.600;8.746;2023-10-13T11:32:57;6.93;;;4.35;;
28547;SDS011;68292;49.600;8.746;2023-10-13T11:35:27;7.13;;;3.97;;
28547;SDS011;68292;49.600;8.746;2023-10-13T11:38:16;4.43;;;4.00;;
28547;SDS011;68292;49.600;8.746;2023-10-13T11:40:53;7.10;;;4.00;;
28547;SDS011;68292;49.600;8.746;2023-10-13T11:43:40;7.47;;;4.35;;
28547;SDS011;68292;49.600;8.746;2023-10-13T11:46:33;7.20;;;3.72;;
28547;SDS011;68292;49.600;8.746;2023-10-13T11:49:20;6.95;;;4.30;;
28547;SDS011;68292;49.600;8.746;2023-10-13T11:51:59;7.55;;;3.92;;
28547;SDS011;68292;49.600;8.746;2023-10-13T11:54:45;7.28;;;4.40;;
28547;SDS011;68292;49.600;8.746;2023-10-13T11:57:15;5.55;;;4.05;;
28547;SDS011;68292;49.600;8.746;2023-10-13T11:59:48;6.00;;;3.78;;
28547;SDS011;68292;49.600;8.746;2023-10-13T12:02:43;6.90;;;4.13;;
28547;SDS011;68292;49.600;8.746;2023-10-13T12:05:31;6.93;;;3.90;;
28547;SDS011;68292;49.600;8.746;2023-10-13T12:08:16;8.20;;;4.18;;
28547;SDS011;68292;49.600;8.746;2023-10-13T12:10:59;7.00;;;4.97;;
28547;SDS011;68292;49.600;8.746;2023-10-13T12:13:48;5.22;;;4.72;;
28547;SDS011;68292;49.600;8.746;2023-10-13T12:16:18;6.43;;;4.43;;
28547;SDS011;68292;49.600;8.746;2023-10-13T12:18:48;7.45;;;4.53;;
28547;SDS011;68292;49.600;8.746;2023-10-13T12:21:20;8.30;;;4.25;;
28547;SDS011;68292;49.600;8.746;2023-10-13T12:23:49;6.53;;;4.43;;
28547;SDS011;68292;49.600;8.746;2023-10-13T12:26:20;6.80;;;4.13;;
28547;SDS011;68292;49.600;8.746;2023-10-13T12:28:59;8.32;;;4.30;;
28547;SDS011;68292;49.600;8.746;2023-10-13T12:31:34;4.57;;;4.15;;
28547;SDS011;68292;49.600;8.746;2023-10-13T12:34:06;5.97;;;4.10;;
28547;SDS011;68292;49.600;8.746;2023-10-13T12:36:45;5.88;;;4.57;;
28547;SDS011;68292;49.600;8.746;2023-10-13T12:39:32;8.23;;;4.72;;
28547;SDS011;68292;49.600;8.746;2023-10-13T12:42:18;8.63;;;4.15;;
28547;SDS011;68292;49.600;8.746;2023-10-13T12:45:05;6.05;;;4.28;;
28547;SDS011;68292;49.600;8.746;2023-10-13T12:47:53;6.45;;;4.43;;
28547;SDS011;68292;49.600;8.746;2023-10-13T12:50:39;7.15;;;4.45;;
28547;SDS011;68292;49.600;8.746;2023-10-13T12:53:11;5.15;;;4.10;;
28547;SDS011;68292;49.600;8.746;2023-10-13T12:55:40;5.22;;;4.25;;
28547;SDS011;68292;49.600;8.746;2023-10-13T12:58:09;5.30;;;4.13;;
28547;SDS011;68292;49.600;8.746;2023-10-13T13:00:38;4.43;;;4.03;;
28547;SDS011;68292;49.600;8.746;2023-10-13T13:03:17;11.20;;;4.22;;
28547;SDS011;68292;49.600;8.746;2023-10-13T13:05:46;9.02;;;4.13;;
28547;SDS011;68292;49.600;8.746;2023-10-13T13:08:15;7.20;;;3.75;;
28547;SDS011;68292;49.600;8.746;2023-10-13T13:10:49;5.43;;;4.53;;
28547;SDS011;68292;49.600;8.746;2023-10-13T13:13:19;5.53;;;4.30;;
28547;SDS011;68292;49.600;8.746;2023-10-13T13:15:52;6.28;;;4.05;;
28547;SDS011;68292;49.600;8.746;2023-10-13T13:18:22;4.93;;;4.32;;
28547;SDS011;68292;49.600;8.746;2023-10-13T13:20:51;7.07;;;4.43;;
28547;SDS011;68292;49.600;8.746;2023-10-13T13:23:23;5.60;;;4.68;;
28547;SDS011;68292;49.600;8.746;2023-10-13T13:25:53;7.30;;;4.15;;
28547;SDS011;68292;49.600;8.746;2023-10-13T13:28:24;8.07;;;4.30;;
28547;SDS011;68292;49.600;8.746;2023-10-13T13:30:56;7.72;;;4.40;;
28547;SDS011;68292;49.600;8.746;2023-10-13T13:33:26;5.25;;;4.05;;
28547;SDS011;68292;49.600;8.746;2023-10-13T13:36:00;6.38;;;4.20;;
28547;SDS011;68292;49.600;8.746;2023-10-13T13:38:31;5.55;;;4.28;;
28547;SDS011;68292;49.600;8.746;2023-10-13T13:41:00;6.57;;;4.80;;
28547;SDS011;68292;49.600;8.746;2023-10-13T13:43:30;5.70;;;3.90;;
28547;SDS011;68292;49.600;8.746;2023-10-13T13:46:05;9.98;;;4.20;;
28547;SDS011;68292;49.600;8.746;2023-10-13T13:48:38;5.97;;;4.25;;
28547;SDS011;68292;49.600;8.746;2023-10-13T13:51:08;6.45;;;4.50;;
28547;SDS011;68292;49.600;8.746;2023-10-13T13:53:42;8.68;;;4.47;;
28547;SDS011;68292;49.600;8.746;2023-10-13T13:56:14;8.40;;;4.40;;
28547;SDS011;68292;49.600;8.746;2023-10-13T13:58:45;8.07;;;4.72;;
28547;SDS011;68292;49.600;8.746;2023-10-13T14:01:15;6.72;;;4.30;;
28547;SDS011;68292;49.600;8.746;2023-10-13T14:03:48;8.45;;;4.38;;
28547;SDS011;68292;49.600;8.746;2023-10-13T14:06:18;7.13;;;4.03;;
28547;SDS011;68292;49.600;8.746;2023-10-13T14:08:51;7.03;;;4.25;;
28547;SDS011;68292;49.600;8.746;2023-10-13T14:11:23;5.88;;;4.00;;
28547;SDS011;68292;49.600;8.746;2023-10-13T14:14:25;5.28;;;4.20;;
28547;SDS011;68292;49.600;8.746;2023-10-13T14:17:00;5.53;;;3.92;;
28547;SDS011;68292;49.600;8.746;2023-10-13T14:19:36;7.75;;;4.43;;
28547;SDS011;68292;49.600;8.746;2023-10-13T14:22:08;7.88;;;4.72;;
28547;SDS011;68292;49.600;8.746;2023-10-13T14:24:39;5.50;;;3.75;;
28547;SDS011;68292;49.600;8.746;2023-10-13T14:27:14;8.55;;;4.22;;
28547;SDS011;68292;49.600;8.746;2023-10-13T14:29:46;6.00;;;4.55;;
28547;SDS011;68292;49.600;8.746;2023-10-13T14:32:20;4.60;;;4.00;;
28547;SDS011;68292;49.600;8.746;2023-10-13T14:34:54;5.03;;;3.75;;
28547;SDS011;68292;49.600;8.746;2023-10-13T14:37:23;5.95;;;3.72;;
28547;SDS011;68292;49.600;8.746;2023-10-13T14:39:58;9.60;;;4.50;;
28547;SDS011;68292;49.600;8.746;2023-10-13T14:42:28;6.15;;;4.15;;
28547;SDS011;68292;49.600;8.746;2023-10-13T14:45:02;6.00;;;4.30;;
28547;SDS011;68292;49.600;8.746;2023-10-13T14:47:39;4.93;;;3.88;;
28547;SDS011;68292;49.600;8.746;2023-10-13T14:50:10;5.55;;;4.60;;
28547;SDS011;68292;49.600;8.746;2023-10-13T14:52:46;5.28;;;4.25;;
28547;SDS011;68292;49.600;8.746;2023-10-13T14:55:16;5.38;;;4.32;;
28547;SDS011;68292;49.600;8.746;2023-10-13T14:57:48;7.63;;;4.80;;
28547;SDS011;68292;49.600;8.746;2023-10-13T15:00:20;5.70;;;4.50;;
28547;SDS011;68292;49.600;8.746;2023-10-13T15:02:52;7.60;;;4.53;;
28547;SDS011;68292;49.600;8.746;2023-10-13T15:05:23;7.03;;;4.38;;
28547;SDS011;68292;49.600;8.746;2023-10-13T15:07:56;5.40;;;4.03;;
28547;SDS011;68292;49.600;8.746;2023-10-13T15:10:25;5.05;;;4.20;;
28547;SDS011;68292;49.600;8.746;2023-10-13T15:12:54;6.18;;;3.83;;
28547;SDS011;68292;49.600;8.746;2023-10-13T15:15:26;5.55;;;3.67;;
28547;SDS011;68292;49.600;8.746;2023-10-13T15:17:57;5.88;;;4.10;;
28547;SDS011;68292;49.600;8.746;2023-10-13T15:20:29;4.43;;;3.67;;
28547;SDS011;68292;49.600;8.746;2023-10-13T15:22:58;3.50;;;3.20;;
28547;SDS011;68292;49.600;8.746;2023-10-13T15:25:27;4.28;;;3.63;;
28547;SDS011;68292;49.600;8.746;2023-10-13T15:27:58;7.47;;;3.85;;
28547;SDS011;68292;49.600;8.746;2023-10-13T15:30:29;6.47;;;4.18;;
28547;SDS011;68292;49.600;8.746;2023-10-13T15:33:11;6.28;;;4.00;;
28547;SDS011;68292;49.600;8.746;2023-10-13T15:35:41;4.88;;;4.38;;
28547;SDS011;68292;49.600;8.746;2023-10-13T15:38:12;4.70;;;3.83;;
28547;SDS011;68292;49.600;8.746;2023-10-13T15:40:42;7.70;;;3.80;;
28547;SDS011;68292;49.600;8.746;2023-10-13T15:43:12;8.93;;;3.85;;
28547;SDS011;68292;49.600;8.746;2023-10-13T15:45:41;6.15;;;4.15;;